createdAt,value
2023-10-29T00:00:31.561Z,73.20
2023-10-29T00:01:31.683Z,73.20
2023-10-29T00:02:32.062Z,73.10
2023-10-29T00:03:31.880Z,72.99
2023-10-29T00:04:31.880Z,72.89
2023-10-29T00:05:31.951Z,72.79
2023-10-29T00:06:32.014Z,72.89
2023-10-29T00:07:32.062Z,72.89
2023-10-29T00:08:32.133Z,72.89
2023-10-29T00:09:32.247Z,72.89
2023-10-29T00:10:32.284Z,72.89
2023-10-29T00:11:32.388Z,72.99
2023-10-29T00:12:32.420Z,72.99
2023-10-29T00:13:32.507Z,72.79
2023-10-29T00:14:32.671Z,72.82
2023-10-29T00:15:32.652Z,72.72
2023-10-29T00:16:32.762Z,72.62
2023-10-29T00:17:32.870Z,72.62
2023-10-29T00:18:32.972Z,72.72
2023-10-29T00:19:33.010Z,72.72
2023-10-29T00:20:33.167Z,72.82
2023-10-29T00:21:33.195Z,72.82
2023-10-29T00:22:33.252Z,72.72
2023-10-29T00:23:33.346Z,72.62
2023-10-29T00:24:33.459Z,72.62
2023-10-29T00:25:33.524Z,72.52
2023-10-29T00:26:33.653Z,72.52
2023-10-29T00:27:33.663Z,72.52
2023-10-29T00:28:33.757Z,72.62
2023-10-29T00:29:33.912Z,72.62
2023-10-29T00:30:33.938Z,72.62
2023-10-29T00:31:34.072Z,72.52
2023-10-29T00:32:34.103Z,72.62
2023-10-29T00:33:34.209Z,72.72
2023-10-29T00:34:34.246Z,72.82
2023-10-29T00:35:34.352Z,72.72
2023-10-29T00:36:34.479Z,72.72
2023-10-29T00:37:34.467Z,72.62
2023-10-29T00:38:34.600Z,72.52
2023-10-29T00:39:34.786Z,72.52
2023-10-29T00:40:34.768Z,72.52
2023-10-29T00:41:34.923Z,72.52
2023-10-29T00:42:34.938Z,72.52
2023-10-29T00:43:35.001Z,72.41
2023-10-29T00:44:35.066Z,72.52
2023-10-29T00:45:35.157Z,72.52
2023-10-29T00:46:35.206Z,72.52
2023-10-29T00:47:35.366Z,72.41
2023-10-29T00:48:35.392Z,72.41
2023-10-29T00:49:35.462Z,72.31
2023-10-29T00:50:35.518Z,72.41
2023-10-29T00:51:35.625Z,72.41
2023-10-29T00:52:35.654Z,72.41
2023-10-29T00:53:35.835Z,72.41
2023-10-29T00:54:35.832Z,72.31
2023-10-29T00:55:35.893Z,72.31
2023-10-29T00:56:36.039Z,72.21
2023-10-29T00:57:36.062Z,72.11
2023-10-29T00:58:36.144Z,72.11
2023-10-29T00:59:36.248Z,72.00
2023-10-29T01:00:36.318Z,71.80
2023-10-29T01:01:36.432Z,71.90
2023-10-29T01:02:36.576Z,71.80
2023-10-29T01:03:37.225Z,71.90
2023-10-29T01:04:36.574Z,71.83
2023-10-29T01:05:36.745Z,71.83
2023-10-29T01:06:36.961Z,71.83
2023-10-29T01:07:36.846Z,71.73
2023-10-29T01:08:37.469Z,71.62
2023-10-29T01:09:37.058Z,71.73
2023-10-29T01:10:37.174Z,71.86
2023-10-29T01:11:37.180Z,72.07
2023-10-29T01:12:37.253Z,72.04
2023-10-29T01:13:37.300Z,72.17
2023-10-29T01:14:37.428Z,72.17
2023-10-29T01:15:37.538Z,72.17
2023-10-29T01:16:37.588Z,72.17
2023-10-29T01:17:37.679Z,72.28
2023-10-29T01:18:37.719Z,72.28
2023-10-29T01:19:37.753Z,72.28
2023-10-29T01:20:37.878Z,72.14
2023-10-29T01:21:37.930Z,72.17
2023-10-29T01:22:38.035Z,72.14
2023-10-29T01:23:38.100Z,72.04
2023-10-29T01:24:38.184Z,71.94
2023-10-29T01:25:38.252Z,71.94
2023-10-29T01:26:38.380Z,71.94
2023-10-29T01:27:38.402Z,71.94
2023-10-29T01:28:38.542Z,71.94
2023-10-29T01:29:38.634Z,71.94
2023-10-29T01:30:38.637Z,71.94
2023-10-29T01:31:38.764Z,71.86
2023-10-29T01:32:38.865Z,71.86
2023-10-29T01:33:38.879Z,71.97
2023-10-29T01:34:38.977Z,72.17
2023-10-29T01:35:39.095Z,72.17
2023-10-29T01:36:39.168Z,72.28
2023-10-29T01:37:39.211Z,72.28
2023-10-29T01:38:39.316Z,72.28
2023-10-29T01:39:39.375Z,72.17
2023-10-29T01:40:39.483Z,72.28
2023-10-29T01:41:39.596Z,72.28
2023-10-29T01:42:39.612Z,72.28
2023-10-29T01:43:39.663Z,72.28
2023-10-29T01:44:39.776Z,72.17
2023-10-29T01:45:39.881Z,72.28
2023-10-29T01:46:39.967Z,72.28
2023-10-29T01:47:40.071Z,72.38
2023-10-29T01:48:40.094Z,72.38
2023-10-29T01:49:40.161Z,72.38
2023-10-29T01:50:40.365Z,72.38
2023-10-29T01:51:40.396Z,72.38
2023-10-29T01:52:40.416Z,72.38
2023-10-29T01:53:40.534Z,72.48
2023-10-29T01:54:40.630Z,72.48
2023-10-29T01:55:40.694Z,72.52
2023-10-29T01:56:40.868Z,72.61
2023-10-29T01:57:40.863Z,72.72
2023-10-29T01:58:40.983Z,72.61
2023-10-29T01:59:41.062Z,72.61
2023-10-29T02:00:41.157Z,72.61
2023-10-29T02:01:41.247Z,72.72
2023-10-29T02:02:41.431Z,72.72
2023-10-29T02:03:41.529Z,72.82
2023-10-29T02:04:41.489Z,72.92
2023-10-29T02:05:41.599Z,73.03
2023-10-29T02:06:41.662Z,73.06
2023-10-29T02:07:41.721Z,73.16
2023-10-29T02:08:41.810Z,73.16
2023-10-29T02:09:41.888Z,73.27
2023-10-29T02:10:41.968Z,73.27
2023-10-29T02:11:42.063Z,73.36
2023-10-29T02:12:42.110Z,73.47
2023-10-29T02:13:42.198Z,73.50
2023-10-29T02:14:42.275Z,73.61
2023-10-29T02:15:42.370Z,73.71
2023-10-29T02:16:42.496Z,73.81
2023-10-29T02:17:42.603Z,73.91
2023-10-29T02:18:42.633Z,73.91
2023-10-29T02:19:42.727Z,73.91
2023-10-29T02:20:42.843Z,74.02
2023-10-29T02:21:42.932Z,73.98
2023-10-29T02:22:43.045Z,73.98
2023-10-29T02:23:43.072Z,73.98
2023-10-29T02:24:43.204Z,73.98
2023-10-29T02:25:43.232Z,73.98
2023-10-29T02:26:43.372Z,73.98
2023-10-29T02:27:43.434Z,73.98
2023-10-29T02:28:43.489Z,74.08
2023-10-29T02:29:43.632Z,74.08
2023-10-29T02:30:43.680Z,74.08
2023-10-29T02:31:43.981Z,74.08
2023-10-29T02:32:43.901Z,74.08
2023-10-29T02:33:43.925Z,74.08
2023-10-29T02:34:44.053Z,74.08
2023-10-29T02:35:44.149Z,74.08
2023-10-29T02:36:44.242Z,73.98
2023-10-29T02:37:44.281Z,73.98
2023-10-29T02:38:44.463Z,73.98
2023-10-29T02:39:44.474Z,73.98
2023-10-29T02:40:44.574Z,73.98
2023-10-29T02:41:44.697Z,73.98
2023-10-29T02:42:44.725Z,73.88
2023-10-29T02:43:44.830Z,73.88
2023-10-29T02:44:45.017Z,73.85
2023-10-29T02:45:45.006Z,73.85
2023-10-29T02:46:45.101Z,73.74
2023-10-29T02:47:45.184Z,73.64
2023-10-29T02:48:45.245Z,73.64
2023-10-29T02:49:45.296Z,73.54
2023-10-29T02:50:45.475Z,73.44
2023-10-29T02:51:45.488Z,73.44
2023-10-29T02:52:45.552Z,73.44
2023-10-29T02:53:45.616Z,73.47
2023-10-29T02:54:45.800Z,73.47
2023-10-29T02:55:45.753Z,73.47
2023-10-29T02:56:45.929Z,73.47
2023-10-29T02:57:45.862Z,73.47
2023-10-29T02:58:45.989Z,73.47
2023-10-29T02:59:46.082Z,73.47
2023-10-29T03:00:46.144Z,73.47
2023-10-29T03:01:46.248Z,73.57
2023-10-29T03:02:46.430Z,73.47
2023-10-29T03:03:46.484Z,73.47
2023-10-29T03:04:46.723Z,73.47
2023-10-29T03:05:56.625Z,73.36
2023-10-29T03:06:46.688Z,73.36
2023-10-29T03:07:46.720Z,73.36
2023-10-29T03:08:46.829Z,73.27
2023-10-29T03:09:46.904Z,73.16
2023-10-29T03:10:46.983Z,73.16
2023-10-29T03:11:47.142Z,73.16
2023-10-29T03:12:47.172Z,73.16
2023-10-29T03:13:47.300Z,73.06
2023-10-29T03:14:47.567Z,73.06
2023-10-29T03:15:47.453Z,73.06
2023-10-29T03:16:47.521Z,72.96
2023-10-29T03:17:47.597Z,72.96
2023-10-29T03:18:47.675Z,72.96
2023-10-29T03:19:47.911Z,72.75
2023-10-29T03:20:47.853Z,72.75
2023-10-29T03:21:48.133Z,72.75
2023-10-29T03:22:47.978Z,72.86
2023-10-29T03:23:48.127Z,72.86
2023-10-29T03:24:48.348Z,72.75
2023-10-29T03:25:48.269Z,72.75
2023-10-29T03:26:48.330Z,72.65
2023-10-29T03:27:48.405Z,72.65
2023-10-29T03:28:48.420Z,72.65
2023-10-29T03:29:48.558Z,72.55
2023-10-29T03:30:48.611Z,72.44
2023-10-29T03:31:49.219Z,72.24
2023-10-29T03:32:48.891Z,72.24
2023-10-29T03:33:48.877Z,72.34
2023-10-29T03:34:49.334Z,72.34
2023-10-29T03:35:49.054Z,72.24
2023-10-29T03:36:49.110Z,72.34
2023-10-29T03:37:49.624Z,72.24
2023-10-29T03:38:49.318Z,72.24
2023-10-29T03:39:49.372Z,72.14
2023-10-29T03:40:49.470Z,72.24
2023-10-29T03:41:49.640Z,72.27
2023-10-29T03:42:49.647Z,72.17
2023-10-29T03:43:49.763Z,72.27
2023-10-29T03:44:50.143Z,72.27
2023-10-29T03:45:49.936Z,72.24
2023-10-29T03:46:49.988Z,72.14
2023-10-29T03:47:50.198Z,72.17
2023-10-29T03:48:50.194Z,72.27
2023-10-29T03:49:50.275Z,72.27
2023-10-29T03:50:50.427Z,72.17
2023-10-29T03:51:50.437Z,72.07
2023-10-29T03:52:50.587Z,71.97
2023-10-29T03:53:50.575Z,71.97
2023-10-29T03:54:50.655Z,72.07
2023-10-29T03:55:50.777Z,72.07
2023-10-29T03:56:50.861Z,71.86
2023-10-29T03:57:50.943Z,71.86
2023-10-29T03:58:51.005Z,71.97
2023-10-29T03:59:51.068Z,71.86
2023-10-29T04:00:51.172Z,71.76
2023-10-29T04:01:51.238Z,71.86
2023-10-29T04:02:51.366Z,71.86
2023-10-29T04:03:51.546Z,71.76
2023-10-29T04:05:02.147Z,71.76
2023-10-29T04:05:51.633Z,71.66
2023-10-29T04:06:51.664Z,71.66
2023-10-29T04:07:51.817Z,71.66
2023-10-29T04:08:51.873Z,71.45
2023-10-29T04:09:51.986Z,71.56
2023-10-29T04:10:52.986Z,71.66
2023-10-29T04:11:52.268Z,71.66
2023-10-29T04:12:52.208Z,71.66
2023-10-29T04:13:52.273Z,71.56
2023-10-29T04:14:52.412Z,71.56
2023-10-29T04:15:52.417Z,71.56
2023-10-29T04:16:52.504Z,71.45
2023-10-29T04:17:52.705Z,71.56
2023-10-29T04:18:52.620Z,71.56
2023-10-29T04:19:52.731Z,71.56
2023-10-29T04:20:52.808Z,71.48
2023-10-29T04:21:52.888Z,71.48
2023-10-29T04:22:52.984Z,71.59
2023-10-29T04:23:53.115Z,71.48
2023-10-29T04:24:53.175Z,71.48
2023-10-29T04:25:53.242Z,71.59
2023-10-29T04:26:53.331Z,71.48
2023-10-29T04:27:53.408Z,71.28
2023-10-29T04:28:53.452Z,71.28
2023-10-29T04:29:53.636Z,71.39
2023-10-29T04:30:53.706Z,71.39
2023-10-29T04:31:53.753Z,71.39
2023-10-29T04:32:53.930Z,71.48
2023-10-29T04:33:53.904Z,71.48
2023-10-29T04:34:53.969Z,71.48
2023-10-29T04:35:54.092Z,71.48
2023-10-29T04:36:54.117Z,71.62
2023-10-29T04:37:54.230Z,71.69
2023-10-29T04:38:54.266Z,71.80
2023-10-29T04:39:54.403Z,71.80
2023-10-29T04:40:54.412Z,71.90
2023-10-29T04:41:54.608Z,71.80
2023-10-29T04:42:54.623Z,71.69
2023-10-29T04:43:54.717Z,71.69
2023-10-29T04:44:54.804Z,71.69
2023-10-29T04:45:54.941Z,71.69
2023-10-29T04:46:54.979Z,71.59
2023-10-29T04:47:55.202Z,71.48
2023-10-29T04:48:55.095Z,71.59
2023-10-29T04:49:55.149Z,71.62
2023-10-29T04:50:55.279Z,71.69
2023-10-29T04:51:55.350Z,71.69
2023-10-29T04:52:55.487Z,71.59
2023-10-29T04:53:55.587Z,71.59
2023-10-29T04:54:55.811Z,71.59
2023-10-29T04:55:55.670Z,71.59
2023-10-29T04:56:55.841Z,71.39
2023-10-29T04:57:56.001Z,71.39
2023-10-29T04:58:55.943Z,71.39
2023-10-29T04:59:56.146Z,71.39
2023-10-29T05:00:56.161Z,71.39
2023-10-29T05:01:56.317Z,71.39
2023-10-29T05:02:56.407Z,71.39
2023-10-29T05:03:56.515Z,71.48
2023-10-29T05:04:56.460Z,71.48
2023-10-29T05:05:56.702Z,71.48
2023-10-29T05:06:56.617Z,71.48
2023-10-29T05:07:56.730Z,71.48
2023-10-29T05:08:56.811Z,71.48
2023-10-29T05:09:56.874Z,71.48
2023-10-29T05:10:56.925Z,71.48
2023-10-29T05:11:57.041Z,71.42
2023-10-29T05:12:57.092Z,71.42
2023-10-29T05:13:57.176Z,71.42
2023-10-29T05:14:57.305Z,71.42
2023-10-29T05:15:57.376Z,71.21
2023-10-29T05:16:57.440Z,71.21
2023-10-29T05:17:57.635Z,71.31
2023-10-29T05:18:57.574Z,71.31
2023-10-29T05:19:57.669Z,71.42
2023-10-29T05:20:59.133Z,71.42
2023-10-29T05:21:57.869Z,71.42
2023-10-29T05:22:57.930Z,71.42
2023-10-29T05:23:58.065Z,71.42
2023-10-29T05:24:58.110Z,71.42
2023-10-29T05:25:58.213Z,71.42
2023-10-29T05:26:58.283Z,71.31
2023-10-29T05:27:58.352Z,71.31
2023-10-29T05:28:58.430Z,71.31
2023-10-29T05:29:58.522Z,71.31
2023-10-29T05:30:58.613Z,71.21
2023-10-29T05:31:58.657Z,71.21
2023-10-29T05:32:58.849Z,71.11
2023-10-29T05:33:58.819Z,71.11
2023-10-29T05:34:58.888Z,71.21
2023-10-29T05:35:59.058Z,71.11
2023-10-29T05:36:59.040Z,71.11
2023-10-29T05:37:59.166Z,71.01
2023-10-29T05:38:59.330Z,70.90
2023-10-29T05:39:59.340Z,70.80
2023-10-29T05:40:59.408Z,70.70
2023-10-29T05:41:59.539Z,70.70
2023-10-29T05:42:59.610Z,70.70
2023-10-29T05:43:59.654Z,70.60
2023-10-29T05:44:59.776Z,70.60
2023-10-29T05:45:59.895Z,70.53
2023-10-29T05:46:59.916Z,70.42
2023-10-29T05:48:00.116Z,70.32
2023-10-29T05:49:00.122Z,70.32
2023-10-29T05:50:00.169Z,70.53
2023-10-29T05:51:00.348Z,70.53
2023-10-29T05:52:00.356Z,70.42
2023-10-29T05:53:00.484Z,70.32
2023-10-29T05:54:00.557Z,70.22
2023-10-29T05:55:00.607Z,70.32
2023-10-29T05:56:00.691Z,70.42
2023-10-29T05:57:00.795Z,70.42
2023-10-29T05:58:00.891Z,70.32
2023-10-29T05:59:00.931Z,70.01
2023-10-29T06:00:01.096Z,69.81
2023-10-29T06:01:01.161Z,69.74
2023-10-29T06:02:01.212Z,69.84
2023-10-29T06:03:01.395Z,69.84
2023-10-29T06:04:01.443Z,69.84
2023-10-29T06:05:01.497Z,69.84
2023-10-29T06:06:01.626Z,69.94
2023-10-29T06:07:01.623Z,69.84
2023-10-29T06:08:01.744Z,69.84
2023-10-29T06:09:09.634Z,69.98
2023-10-29T06:10:01.902Z,70.18
2023-10-29T06:11:01.978Z,70.28
2023-10-29T06:12:02.098Z,70.49
2023-10-29T06:13:02.177Z,70.49
2023-10-29T06:14:02.259Z,70.49
2023-10-29T06:15:02.326Z,70.59
2023-10-29T06:16:02.409Z,70.59
2023-10-29T06:17:15.608Z,70.49
2023-10-29T06:18:02.642Z,70.59
2023-10-29T06:19:02.682Z,70.59
2023-10-29T06:20:02.763Z,70.59
2023-10-29T06:21:02.927Z,70.59
2023-10-29T06:22:02.938Z,70.59
2023-10-29T06:23:03.070Z,70.79
2023-10-29T06:24:03.237Z,70.90
2023-10-29T06:25:03.225Z,70.90
2023-10-29T06:26:03.268Z,71.00
2023-10-29T06:27:03.394Z,71.11
2023-10-29T06:28:03.501Z,71.00
2023-10-29T06:29:03.549Z,71.00
2023-10-29T06:30:03.747Z,70.90
2023-10-29T06:31:03.760Z,70.70
2023-10-29T06:32:03.809Z,70.79
2023-10-29T06:33:03.978Z,70.90
2023-10-29T06:34:03.983Z,71.00
2023-10-29T06:35:04.069Z,71.00
2023-10-29T06:36:04.171Z,71.00
2023-10-29T06:37:04.236Z,71.00
2023-10-29T06:38:04.349Z,71.21
2023-10-29T06:39:04.450Z,71.21
2023-10-29T06:40:04.471Z,71.31
2023-10-29T06:41:04.530Z,71.51
2023-10-29T06:42:04.668Z,71.62
2023-10-29T06:43:04.714Z,71.62
2023-10-29T06:44:04.795Z,71.62
2023-10-29T06:45:04.853Z,71.83
2023-10-29T06:46:04.918Z,71.83
2023-10-29T06:47:04.992Z,71.93
2023-10-29T06:48:05.173Z,71.93
2023-10-29T06:49:05.167Z,72.03
2023-10-29T06:50:05.262Z,72.03
2023-10-29T06:51:05.418Z,72.03
2023-10-29T06:52:05.457Z,72.03
2023-10-29T06:53:05.558Z,72.13
2023-10-29T06:54:05.642Z,72.24
2023-10-29T06:55:05.674Z,72.34
2023-10-29T06:56:05.786Z,72.34
2023-10-29T06:57:05.950Z,72.34
2023-10-29T06:58:05.969Z,72.44
2023-10-29T06:59:06.012Z,72.55
2023-10-29T07:00:06.211Z,72.65
2023-10-29T07:01:06.151Z,72.75
2023-10-29T07:02:06.261Z,72.75
2023-10-29T07:03:06.556Z,72.75
2023-10-29T07:04:06.590Z,72.85
2023-10-29T07:05:06.504Z,72.96
2023-10-29T07:06:07.266Z,73.06
2023-10-29T07:07:06.644Z,72.96
2023-10-29T07:08:06.759Z,73.06
2023-10-29T07:09:06.836Z,73.16
2023-10-29T07:10:06.888Z,73.23
2023-10-29T07:11:06.985Z,73.36
2023-10-29T07:12:07.095Z,73.44
2023-10-29T07:13:07.226Z,73.44
2023-10-29T07:14:07.238Z,73.54
2023-10-29T07:15:07.382Z,73.54
2023-10-29T07:16:07.453Z,73.64
2023-10-29T07:17:07.508Z,73.74
2023-10-29T07:18:07.738Z,73.74
2023-10-29T07:19:07.728Z,73.74
2023-10-29T07:20:07.762Z,73.74
2023-10-29T07:21:07.897Z,73.85
2023-10-29T07:22:07.904Z,73.85
2023-10-29T07:23:07.987Z,73.95
2023-10-29T07:24:08.090Z,73.95
2023-10-29T07:25:08.119Z,73.95
2023-10-29T07:26:08.204Z,73.95
2023-10-29T07:27:08.323Z,73.95
2023-10-29T07:28:08.416Z,74.05
2023-10-29T07:29:08.469Z,74.15
2023-10-29T07:30:08.652Z,74.12
2023-10-29T07:31:08.660Z,74.12
2023-10-29T07:32:08.748Z,74.22
2023-10-29T07:33:08.917Z,74.22
2023-10-29T07:34:08.915Z,74.22
2023-10-29T07:35:09.005Z,74.22
2023-10-29T07:36:09.158Z,74.22
2023-10-29T07:37:11.823Z,74.32
2023-10-29T07:38:09.271Z,74.32
2023-10-29T07:39:09.343Z,74.32
2023-10-29T07:40:09.376Z,74.32
2023-10-29T07:41:09.462Z,74.32
2023-10-29T07:42:09.525Z,74.32
2023-10-29T07:43:09.641Z,74.43
2023-10-29T07:44:09.695Z,74.43
2023-10-29T07:45:09.819Z,74.43
2023-10-29T07:46:09.836Z,74.43
2023-10-29T07:47:09.916Z,74.43
2023-10-29T07:48:10.035Z,74.43
2023-10-29T07:49:10.079Z,74.43
2023-10-29T07:50:10.152Z,74.43
2023-10-29T07:51:10.290Z,74.53
2023-10-29T07:52:10.328Z,74.53
2023-10-29T07:53:10.446Z,74.63
2023-10-29T07:54:10.520Z,74.60
2023-10-29T07:55:10.578Z,74.60
2023-10-29T07:56:10.674Z,74.60
2023-10-29T07:57:10.775Z,74.70
2023-10-29T07:58:10.844Z,74.70
2023-10-29T07:59:10.913Z,74.70
2023-10-29T08:00:11.071Z,74.80
2023-10-29T08:01:11.091Z,74.80
2023-10-29T08:02:11.148Z,74.91
2023-10-29T08:03:11.356Z,74.91
2023-10-29T08:04:11.393Z,74.91
2023-10-29T08:05:11.422Z,74.91
2023-10-29T08:06:11.498Z,74.91
2023-10-29T08:07:11.590Z,75.01
2023-10-29T08:08:11.641Z,75.01
2023-10-29T08:09:11.770Z,75.01
2023-10-29T08:10:11.841Z,75.11
2023-10-29T08:11:11.869Z,75.11
2023-10-29T08:12:11.997Z,75.08
2023-10-29T08:13:12.086Z,75.18
2023-10-29T08:14:12.096Z,75.18
2023-10-29T08:15:12.251Z,75.28
2023-10-29T08:16:12.322Z,75.28
2023-10-29T08:17:12.313Z,75.38
2023-10-29T08:18:12.588Z,75.49
2023-10-29T08:19:12.563Z,75.59
2023-10-29T08:20:12.614Z,75.79
2023-10-29T08:21:12.743Z,75.79
2023-10-29T08:22:12.782Z,75.90
2023-10-29T08:23:12.873Z,75.90
2023-10-29T08:24:12.958Z,75.90
2023-10-29T08:25:13.138Z,76.10
2023-10-29T08:26:13.112Z,76.10
2023-10-29T08:27:13.176Z,76.10
2023-10-29T08:28:13.335Z,76.10
2023-10-29T08:29:13.367Z,76.10
2023-10-29T08:30:13.495Z,76.10
2023-10-29T08:31:13.591Z,76.07
2023-10-29T08:32:13.657Z,76.07
2023-10-29T08:33:13.800Z,76.07
2023-10-29T08:34:13.787Z,76.07
2023-10-29T08:35:13.881Z,75.96
2023-10-29T08:36:13.997Z,75.96
2023-10-29T08:37:14.061Z,75.96
2023-10-29T08:38:14.220Z,76.07
2023-10-29T08:39:14.315Z,76.07
2023-10-29T08:40:14.322Z,76.07
2023-10-29T08:41:14.444Z,76.07
2023-10-29T08:42:14.528Z,76.17
2023-10-29T08:43:14.652Z,76.17
2023-10-29T08:44:14.666Z,76.27
2023-10-29T08:45:19.654Z,76.37
2023-10-29T08:46:14.939Z,76.48
2023-10-29T08:47:14.870Z,76.48
2023-10-29T08:48:15.107Z,76.48
2023-10-29T08:49:15.044Z,76.58
2023-10-29T08:50:15.115Z,76.58
2023-10-29T08:51:15.233Z,76.68
2023-10-29T08:52:15.330Z,76.78
2023-10-29T08:53:15.437Z,76.99
2023-10-29T08:54:15.504Z,76.99
2023-10-29T08:55:15.563Z,76.99
2023-10-29T08:56:15.665Z,76.99
2023-10-29T09:00:27.211Z,76.99
2023-10-29T09:01:26.182Z,77.09
2023-10-29T09:02:26.358Z,77.20
2023-10-29T09:03:26.509Z,77.29
2023-10-29T09:04:26.417Z,77.29
2023-10-29T09:05:26.575Z,77.29
2023-10-29T09:06:26.664Z,77.20
2023-10-29T09:07:26.661Z,77.20
2023-10-29T09:08:26.782Z,77.09
2023-10-29T09:09:26.835Z,77.16
2023-10-29T09:10:26.954Z,77.26
2023-10-29T09:11:27.009Z,77.26
2023-10-29T09:12:27.066Z,77.47
2023-10-29T09:13:27.191Z,77.57
2023-10-29T09:14:27.243Z,77.67
2023-10-29T09:15:27.341Z,77.67
2023-10-29T09:16:27.493Z,77.67
2023-10-29T09:17:27.499Z,77.64
2023-10-29T09:18:27.626Z,77.64
2023-10-29T09:19:27.642Z,77.53
2023-10-29T09:20:27.729Z,77.64
2023-10-29T09:21:27.834Z,77.53
2023-10-29T09:22:27.923Z,77.53
2023-10-29T09:23:28.043Z,77.53
2023-10-29T09:24:28.103Z,77.43
2023-10-29T09:25:28.163Z,77.33
2023-10-29T09:26:28.230Z,77.33
2023-10-29T09:27:28.268Z,77.53
2023-10-29T09:28:28.447Z,77.53
2023-10-29T09:29:28.464Z,77.64
2023-10-29T09:30:28.568Z,77.64
2023-10-29T09:31:28.667Z,77.53
2023-10-29T09:32:28.726Z,77.43
2023-10-29T09:33:28.878Z,77.43
2023-10-29T09:34:28.907Z,77.43
2023-10-29T09:35:28.982Z,77.43
2023-10-29T09:36:29.079Z,77.50
2023-10-29T11:04:07.801Z,82.59
2023-10-29T11:05:08.783Z,82.49
2023-10-29T11:06:08.768Z,82.39
2023-10-29T11:07:08.827Z,82.28
2023-10-29T11:08:08.893Z,82.08
2023-10-29T11:09:09.145Z,82.14
2023-10-29T11:10:09.074Z,82.14
2023-10-29T11:11:09.201Z,82.04
2023-10-29T11:12:09.365Z,82.00
2023-10-29T11:13:09.341Z,82.00
2023-10-29T11:15:24.779Z,82.17
2023-10-29T11:16:25.822Z,81.96
2023-10-29T11:17:25.827Z,81.86
2023-10-29T11:18:25.950Z,81.76
2023-10-29T11:19:26.049Z,81.76
2023-10-29T11:20:26.073Z,81.72
2023-10-29T11:21:26.157Z,81.72
2023-10-29T11:22:26.209Z,81.72
2023-10-29T11:23:26.311Z,81.62
2023-10-29T11:24:26.390Z,81.41
2023-10-29T11:25:26.496Z,81.41
2023-10-29T11:26:26.532Z,81.27
2023-10-29T11:27:26.645Z,81.27
2023-10-29T11:28:26.740Z,81.17
2023-10-29T11:29:26.821Z,80.97
2023-10-29T11:30:26.937Z,80.77
2023-10-29T11:31:27.058Z,80.46
2023-10-29T11:32:27.146Z,80.42
2023-10-29T11:33:27.268Z,80.63
2023-10-29T11:34:27.209Z,80.52
2023-10-29T11:35:27.308Z,80.42
2023-10-29T11:36:27.382Z,80.22
2023-10-29T11:37:27.443Z,80.22
2023-10-29T11:38:27.505Z,80.18
2023-10-29T11:39:27.582Z,80.18
2023-10-29T11:40:27.633Z,79.98
2023-10-29T11:41:27.741Z,80.08
2023-10-29T11:42:27.824Z,80.18
2023-10-29T11:43:27.927Z,80.08
2023-10-29T11:44:28.137Z,79.98
2023-10-29T11:45:28.205Z,79.98
2023-10-29T11:46:28.256Z,79.88
2023-10-29T11:47:28.296Z,79.98
2023-10-29T11:48:28.435Z,80.08
2023-10-29T11:49:28.488Z,80.08
2023-10-29T11:50:28.550Z,80.08
2023-10-29T11:51:28.661Z,80.08
2023-10-29T11:52:28.676Z,79.98
2023-10-29T11:53:28.839Z,79.94
2023-10-29T11:54:28.934Z,79.84
2023-10-29T11:55:28.944Z,79.53
2023-10-29T11:56:29.002Z,79.33
2023-10-29T11:57:29.116Z,79.33
2023-10-29T11:58:29.160Z,79.33
2023-10-29T11:59:29.391Z,79.19
2023-10-29T12:00:29.451Z,79.09
2023-10-29T12:01:29.458Z,78.89
2023-10-29T12:02:29.561Z,78.78
2023-10-29T12:03:29.825Z,78.48
2023-10-29T12:04:29.835Z,78.38
2023-10-29T12:05:29.836Z,78.28
2023-10-29T12:06:29.887Z,78.28
2023-10-29T12:07:32.659Z,78.17
2023-10-29T12:08:30.001Z,78.38
2023-10-29T12:09:30.158Z,78.58
2023-10-29T12:10:30.166Z,78.58
2023-10-29T12:11:30.238Z,78.58
2023-10-29T12:12:30.374Z,78.58
2023-10-29T12:13:30.455Z,78.44
2023-10-29T12:14:30.472Z,78.24
2023-10-29T12:15:30.634Z,78.24
2023-10-29T12:16:30.938Z,78.24
2023-10-29T12:17:30.816Z,78.14
2023-10-29T12:18:30.869Z,78.04
2023-10-29T12:19:30.903Z,78.04
2023-10-29T12:20:30.934Z,77.94
2023-10-29T12:21:31.069Z,77.83
2023-10-29T12:22:31.080Z,78.14
2023-10-29T12:23:31.212Z,77.83
2023-10-29T12:24:31.296Z,77.83
2023-10-29T12:25:31.399Z,77.73
2023-10-29T12:26:31.473Z,77.53
2023-10-29T12:27:31.576Z,77.53
2023-10-29T12:28:31.585Z,77.43
2023-10-29T12:29:31.693Z,77.22
2023-10-29T12:30:31.775Z,77.22
2023-10-29T12:31:31.861Z,77.33
2023-10-29T12:32:31.926Z,77.43
2023-10-29T12:33:31.988Z,77.39
2023-10-29T12:34:32.135Z,77.39
2023-10-29T12:35:32.209Z,76.98
2023-10-29T12:36:32.250Z,76.78
2023-10-29T12:37:32.312Z,76.68
2023-10-29T12:38:32.433Z,76.78
2023-10-29T12:39:32.883Z,76.78
2023-10-29T12:40:32.585Z,76.88
2023-10-29T12:41:32.685Z,76.88
2023-10-29T12:42:32.728Z,76.85
2023-10-29T12:43:32.904Z,76.75
2023-10-29T12:44:32.908Z,76.75
2023-10-29T12:45:33.039Z,76.64
2023-10-29T12:46:33.088Z,76.44
2023-10-29T12:47:33.188Z,76.24
2023-10-29T12:48:33.295Z,75.93
2023-10-29T12:49:33.419Z,75.83
2023-10-29T12:50:33.424Z,75.63
2023-10-29T12:51:33.592Z,75.52
2023-10-29T12:52:33.596Z,75.52
2023-10-29T12:53:33.745Z,75.63
2023-10-29T12:54:33.866Z,75.43
2023-10-29T12:55:33.966Z,75.32
2023-10-29T12:56:33.939Z,75.39
2023-10-29T12:57:34.096Z,75.39
2023-10-29T12:58:34.084Z,75.29
2023-10-29T12:59:34.202Z,75.09
2023-10-29T13:00:34.276Z,74.98
2023-10-29T13:01:34.324Z,74.98
2023-10-29T13:02:34.457Z,74.85
2023-10-29T13:03:35.751Z,74.74
2023-10-29T13:04:34.596Z,74.65
2023-10-29T13:05:34.678Z,74.65
2023-10-29T13:06:34.725Z,74.74
2023-10-29T13:07:34.820Z,74.65
2023-10-29T13:08:34.950Z,74.65
2023-10-29T13:09:35.030Z,73.83
2023-10-29T13:10:35.091Z,73.33
2023-10-29T13:11:35.190Z,73.43
2023-10-29T13:12:35.313Z,73.60
2023-10-29T13:13:36.577Z,73.80
2023-10-29T13:14:35.449Z,73.80
2023-10-29T13:15:35.580Z,73.90
2023-10-29T13:16:36.481Z,73.80
2023-10-29T13:17:35.789Z,73.70
2023-10-29T13:18:35.861Z,73.90
2023-10-29T13:19:35.903Z,74.00
2023-10-29T13:20:36.807Z,74.00
2023-10-29T13:21:36.087Z,74.00
2023-10-29T13:22:36.138Z,74.00
2023-10-29T13:23:36.234Z,74.00
2023-10-29T13:24:36.339Z,74.10
2023-10-29T13:25:36.510Z,74.21
2023-10-29T13:26:36.522Z,74.41
2023-10-29T13:27:37.438Z,74.51
2023-10-29T13:28:36.699Z,74.51
2023-10-29T13:29:36.779Z,74.61
2023-10-29T13:30:36.907Z,74.61
2023-10-29T13:31:36.929Z,74.71
2023-10-29T13:32:37.089Z,74.51
2023-10-29T13:33:37.166Z,74.41
2023-10-29T13:34:37.173Z,74.41
2023-10-29T13:35:37.242Z,74.30
2023-10-29T13:36:37.357Z,74.41
2023-10-29T13:37:37.375Z,74.30
2023-10-29T13:38:37.414Z,74.21
2023-10-29T13:39:37.515Z,74.30
2023-10-29T13:40:37.607Z,74.30
2023-10-29T13:41:37.704Z,74.51
2023-10-29T13:42:37.760Z,74.61
2023-10-29T13:43:37.880Z,74.61
2023-10-29T13:44:37.951Z,74.61
2023-10-29T13:45:38.066Z,74.71
2023-10-29T13:46:38.166Z,75.01
2023-10-29T13:47:38.222Z,75.12
2023-10-29T13:48:38.313Z,74.98
2023-10-29T13:49:38.367Z,74.91
2023-10-29T13:50:38.456Z,75.01
2023-10-29T13:51:38.519Z,74.91
2023-10-29T13:52:38.633Z,74.91
2023-10-29T13:53:38.669Z,74.71
2023-10-29T13:54:38.773Z,74.71
2023-10-29T13:55:38.835Z,74.88
2023-10-29T13:56:38.941Z,74.88
2023-10-29T13:57:39.004Z,74.88
2023-10-29T13:58:39.103Z,74.88
2023-10-29T13:59:39.173Z,74.77
2023-10-29T14:00:39.289Z,74.77
2023-10-29T14:01:39.298Z,74.57
2023-10-29T14:02:39.480Z,74.57
2023-10-29T14:03:39.552Z,74.37
2023-10-29T14:04:39.585Z,74.37
2023-10-29T14:05:39.687Z,74.48
2023-10-29T14:06:39.791Z,74.37
2023-10-29T14:07:39.803Z,74.37
2023-10-29T14:08:39.917Z,74.48
2023-10-29T14:09:39.967Z,74.57
2023-10-29T14:10:40.152Z,74.48
2023-10-29T14:11:40.147Z,74.57
2023-10-29T14:12:40.283Z,74.57
2023-10-29T14:13:40.327Z,74.57
2023-10-29T14:14:40.437Z,74.77
2023-10-29T14:15:40.556Z,74.77
2023-10-29T14:16:40.624Z,74.98
2023-10-29T14:17:40.689Z,75.08
2023-10-29T14:18:40.802Z,74.88
2023-10-29T14:19:40.875Z,74.84
2023-10-29T14:20:40.973Z,74.84
2023-10-29T14:21:41.046Z,74.74
2023-10-29T14:22:41.117Z,74.74
2023-10-29T14:23:41.153Z,74.74
2023-10-29T14:24:41.610Z,74.84